sensor_id;sensor_type;location;lat;lon;timestamp;P1;durP1;ratioP1;P2;durP2;ratioP2
45676;SDS011;31390;51.186;6.830;2022-07-29T00:01:43;4.18;;;1.33;;
45676;SDS011;31390;51.186;6.830;2022-07-29T00:04:10;3.45;;;1.45;;
45676;SDS011;31390;51.186;6.830;2022-07-29T00:06:37;4.40;;;1.42;;
45676;SDS011;31390;51.186;6.830;2022-07-29T00:09:04;5.03;;;1.10;;
45676;SDS011;31390;51.186;6.830;2022-07-29T00:11:30;2.50;;;1.45;;
45676;SDS011;31390;51.186;6.830;2022-07-29T00:13:57;3.20;;;1.42;;
45676;SDS011;31390;51.186;6.830;2022-07-29T00:16:24;2.45;;;1.30;;
45676;SDS011;31390;51.186;6.830;2022-07-29T00:18:50;10.02;;;1.70;;
45676;SDS011;31390;51.186;6.830;2022-07-29T00:21:17;3.60;;;1.50;;
45676;SDS011;31390;51.186;6.830;2022-07-29T00:23:43;4.70;;;1.40;;
45676;SDS011;31390;51.186;6.830;2022-07-29T00:26:10;3.90;;;1.70;;
45676;SDS011;31390;51.186;6.830;2022-07-29T00:28:37;4.53;;;1.48;;
45676;SDS011;31390;51.186;6.830;2022-07-29T00:31:03;3.58;;;1.35;;
45676;SDS011;31390;51.186;6.830;2022-07-29T00:33:30;2.30;;;1.20;;
45676;SDS011;31390;51.186;6.830;2022-07-29T00:35:57;2.42;;;1.20;;
45676;SDS011;31390;51.186;6.830;2022-07-29T00:38:23;4.68;;;1.40;;
45676;SDS011;31390;51.186;6.830;2022-07-29T00:40:50;2.38;;;1.13;;
45676;SDS011;31390;51.186;6.830;2022-07-29T00:43:17;3.13;;;1.45;;
45676;SDS011;31390;51.186;6.830;2022-07-29T00:45:44;4.00;;;1.38;;
45676;SDS011;31390;51.186;6.830;2022-07-29T00:48:11;3.40;;;1.30;;
45676;SDS011;31390;51.186;6.830;2022-07-29T00:50:37;2.45;;;1.40;;
45676;SDS011;31390;51.186;6.830;2022-07-29T00:53:06;3.53;;;1.35;;
45676;SDS011;31390;51.186;6.830;2022-07-29T00:55:32;3.42;;;1.38;;
45676;SDS011;31390;51.186;6.830;2022-07-29T00:57:59;3.17;;;1.50;;
45676;SDS011;31390;51.186;6.830;2022-07-29T01:00:27;3.72;;;1.15;;
45676;SDS011;31390;51.186;6.830;2022-07-29T01:02:54;2.88;;;1.70;;
45676;SDS011;31390;51.186;6.830;2022-07-29T01:05:21;3.85;;;1.42;;
45676;SDS011;31390;51.186;6.830;2022-07-29T01:07:49;3.55;;;1.70;;
45676;SDS011;31390;51.186;6.830;2022-07-29T01:10:17;4.05;;;1.40;;
45676;SDS011;31390;51.186;6.830;2022-07-29T01:12:45;2.42;;;1.30;;
45676;SDS011;31390;51.186;6.830;2022-07-29T01:15:12;5.93;;;1.45;;
45676;SDS011;31390;51.186;6.830;2022-07-29T01:23:07;5.72;;;1.65;;
45676;SDS011;31390;51.186;6.830;2022-07-29T01:28:35;7.32;;;1.90;;
45676;SDS011;31390;51.186;6.830;2022-07-29T01:31:04;5.03;;;2.15;;
45676;SDS011;31390;51.186;6.830;2022-07-29T01:33:34;4.47;;;1.60;;
45676;SDS011;31390;51.186;6.830;2022-07-29T01:36:33;3.65;;;1.15;;
45676;SDS011;31390;51.186;6.830;2022-07-29T01:39:12;2.05;;;1.55;;
45676;SDS011;31390;51.186;6.830;2022-07-29T01:41:45;3.75;;;1.48;;
45676;SDS011;31390;51.186;6.830;2022-07-29T01:44:22;5.60;;;1.45;;
45676;SDS011;31390;51.186;6.830;2022-07-29T01:46:53;3.45;;;1.63;;
45676;SDS011;31390;51.186;6.830;2022-07-29T01:49:21;3.17;;;1.42;;
45676;SDS011;31390;51.186;6.830;2022-07-29T01:51:51;3.17;;;1.40;;
45676;SDS011;31390;51.186;6.830;2022-07-29T01:54:21;3.67;;;1.48;;
45676;SDS011;31390;51.186;6.830;2022-07-29T01:56:51;4.00;;;1.60;;
45676;SDS011;31390;51.186;6.830;2022-07-29T01:59:19;5.10;;;2.15;;
45676;SDS011;31390;51.186;6.830;2022-07-29T02:01:46;6.45;;;2.05;;
45676;SDS011;31390;51.186;6.830;2022-07-29T02:04:15;5.80;;;2.40;;
45676;SDS011;31390;51.186;6.830;2022-07-29T02:06:57;3.90;;;1.90;;
45676;SDS011;31390;51.186;6.830;2022-07-29T02:09:24;6.85;;;2.55;;
45676;SDS011;31390;51.186;6.830;2022-07-29T02:11:52;6.20;;;2.40;;
45676;SDS011;31390;51.186;6.830;2022-07-29T02:14:20;3.70;;;1.92;;
45676;SDS011;31390;51.186;6.830;2022-07-29T02:16:47;3.67;;;1.98;;
45676;SDS011;31390;51.186;6.830;2022-07-29T02:19:17;5.63;;;2.38;;
45676;SDS011;31390;51.186;6.830;2022-07-29T02:21:44;4.22;;;2.00;;
45676;SDS011;31390;51.186;6.830;2022-07-29T02:24:11;7.78;;;1.88;;
45676;SDS011;31390;51.186;6.830;2022-07-29T02:26:40;3.65;;;1.85;;
45676;SDS011;31390;51.186;6.830;2022-07-29T02:29:08;3.08;;;1.40;;
45676;SDS011;31390;51.186;6.830;2022-07-29T02:31:35;7.18;;;1.95;;
45676;SDS011;31390;51.186;6.830;2022-07-29T02:34:03;4.20;;;2.08;;
45676;SDS011;31390;51.186;6.830;2022-07-29T02:36:31;5.88;;;2.00;;
45676;SDS011;31390;51.186;6.830;2022-07-29T02:38:58;3.00;;;1.85;;
45676;SDS011;31390;51.186;6.830;2022-07-29T02:41:35;3.42;;;1.30;;
45676;SDS011;31390;51.186;6.830;2022-07-29T02:44:06;3.67;;;1.90;;
45676;SDS011;31390;51.186;6.830;2022-07-29T02:46:33;5.05;;;1.65;;
45676;SDS011;31390;51.186;6.830;2022-07-29T02:49:07;2.92;;;1.58;;
45676;SDS011;31390;51.186;6.830;2022-07-29T02:51:45;2.78;;;1.30;;
45676;SDS011;31390;51.186;6.830;2022-07-29T02:54:19;7.78;;;1.90;;
45676;SDS011;31390;51.186;6.830;2022-07-29T02:56:49;2.75;;;1.65;;
45676;SDS011;31390;51.186;6.830;2022-07-29T02:59:26;6.82;;;2.38;;
45676;SDS011;31390;51.186;6.830;2022-07-29T03:01:54;5.05;;;2.30;;
45676;SDS011;31390;51.186;6.830;2022-07-29T03:04:21;17.85;;;2.40;;
45676;SDS011;31390;51.186;6.830;2022-07-29T03:06:49;4.20;;;2.33;;
45676;SDS011;31390;51.186;6.830;2022-07-29T03:09:16;4.95;;;2.45;;
45676;SDS011;31390;51.186;6.830;2022-07-29T03:11:44;4.13;;;2.60;;
45676;SDS011;31390;51.186;6.830;2022-07-29T03:14:16;5.20;;;2.58;;
45676;SDS011;31390;51.186;6.830;2022-07-29T03:16:44;10.65;;;2.70;;
45676;SDS011;31390;51.186;6.830;2022-07-29T03:19:11;4.45;;;2.10;;
45676;SDS011;31390;51.186;6.830;2022-07-29T03:21:37;2.90;;;1.90;;
45676;SDS011;31390;51.186;6.830;2022-07-29T03:24:04;4.05;;;2.13;;
45676;SDS011;31390;51.186;6.830;2022-07-29T03:26:35;5.45;;;2.00;;
45676;SDS011;31390;51.186;6.830;2022-07-29T03:29:03;6.00;;;2.00;;
45676;SDS011;31390;51.186;6.830;2022-07-29T03:31:31;6.40;;;2.30;;
45676;SDS011;31390;51.186;6.830;2022-07-29T03:33:58;4.72;;;2.80;;
45676;SDS011;31390;51.186;6.830;2022-07-29T03:36:25;6.68;;;3.03;;
45676;SDS011;31390;51.186;6.830;2022-07-29T03:38:52;4.75;;;2.65;;
45676;SDS011;31390;51.186;6.830;2022-07-29T03:41:19;4.20;;;2.30;;
45676;SDS011;31390;51.186;6.830;2022-07-29T03:43:48;4.25;;;2.92;;
45676;SDS011;31390;51.186;6.830;2022-07-29T03:46:15;8.98;;;3.42;;
45676;SDS011;31390;51.186;6.830;2022-07-29T03:48:45;6.05;;;2.60;;
45676;SDS011;31390;51.186;6.830;2022-07-29T03:51:13;5.90;;;3.22;;
45676;SDS011;31390;51.186;6.830;2022-07-29T03:53:39;6.50;;;3.40;;
45676;SDS011;31390;51.186;6.830;2022-07-29T03:56:06;6.72;;;3.70;;
45676;SDS011;31390;51.186;6.830;2022-07-29T03:58:34;7.10;;;3.03;;
45676;SDS011;31390;51.186;6.830;2022-07-29T04:01:01;6.10;;;3.20;;
45676;SDS011;31390;51.186;6.830;2022-07-29T04:03:28;4.95;;;3.55;;
45676;SDS011;31390;51.186;6.830;2022-07-29T04:05:59;7.93;;;3.40;;
45676;SDS011;31390;51.186;6.830;2022-07-29T04:08:26;9.15;;;3.53;;
45676;SDS011;31390;51.186;6.830;2022-07-29T04:10:53;7.55;;;3.85;;
45676;SDS011;31390;51.186;6.830;2022-07-29T04:13:20;8.27;;;4.38;;
45676;SDS011;31390;51.186;6.830;2022-07-29T04:15:47;9.02;;;4.63;;
45676;SDS011;31390;51.186;6.830;2022-07-29T04:18:21;7.15;;;4.45;;
45676;SDS011;31390;51.186;6.830;2022-07-29T04:20:47;6.88;;;3.53;;
45676;SDS011;31390;51.186;6.830;2022-07-29T04:23:14;5.78;;;3.70;;
45676;SDS011;31390;51.186;6.830;2022-07-29T04:25:41;7.20;;;3.70;;
45676;SDS011;31390;51.186;6.830;2022-07-29T04:28:08;10.88;;;5.25;;
45676;SDS011;31390;51.186;6.830;2022-07-29T04:30:35;10.65;;;4.68;;
45676;SDS011;31390;51.186;6.830;2022-07-29T04:33:03;10.70;;;4.20;;
45676;SDS011;31390;51.186;6.830;2022-07-29T04:35:30;9.73;;;3.97;;
45676;SDS011;31390;51.186;6.830;2022-07-29T04:38:04;7.47;;;4.15;;
45676;SDS011;31390;51.186;6.830;2022-07-29T04:40:31;11.35;;;5.57;;
45676;SDS011;31390;51.186;6.830;2022-07-29T04:43:00;14.77;;;6.15;;
45676;SDS011;31390;51.186;6.830;2022-07-29T04:45:31;10.65;;;4.93;;
45676;SDS011;31390;51.186;6.830;2022-07-29T04:47:57;8.63;;;5.07;;
45676;SDS011;31390;51.186;6.830;2022-07-29T04:50:24;12.10;;;5.80;;
45676;SDS011;31390;51.186;6.830;2022-07-29T04:52:50;15.63;;;6.90;;
45676;SDS011;31390;51.186;6.830;2022-07-29T04:55:17;14.70;;;7.95;;
45676;SDS011;31390;51.186;6.830;2022-07-29T04:57:43;13.57;;;6.15;;
45676;SDS011;31390;51.186;6.830;2022-07-29T05:00:10;8.77;;;6.28;;
45676;SDS011;31390;51.186;6.830;2022-07-29T05:02:37;13.07;;;6.80;;
45676;SDS011;31390;51.186;6.830;2022-07-29T05:05:04;13.30;;;5.90;;
45676;SDS011;31390;51.186;6.830;2022-07-29T05:07:31;10.93;;;6.22;;
45676;SDS011;31390;51.186;6.830;2022-07-29T05:09:57;14.35;;;7.70;;
45676;SDS011;31390;51.186;6.830;2022-07-29T05:12:24;16.73;;;8.10;;
45676;SDS011;31390;51.186;6.830;2022-07-29T05:14:51;16.75;;;9.82;;
45676;SDS011;31390;51.186;6.830;2022-07-29T05:17:18;13.77;;;8.95;;
45676;SDS011;31390;51.186;6.830;2022-07-29T05:19:46;9.35;;;6.18;;
45676;SDS011;31390;51.186;6.830;2022-07-29T05:22:13;15.82;;;8.18;;
45676;SDS011;31390;51.186;6.830;2022-07-29T05:24:39;8.95;;;6.03;;
45676;SDS011;31390;51.186;6.830;2022-07-29T05:27:06;11.90;;;7.13;;
45676;SDS011;31390;51.186;6.830;2022-07-29T05:29:33;12.52;;;6.97;;
45676;SDS011;31390;51.186;6.830;2022-07-29T05:32:11;7.90;;;5.50;;
45676;SDS011;31390;51.186;6.830;2022-07-29T05:34:39;7.30;;;5.75;;
45676;SDS011;31390;51.186;6.830;2022-07-29T05:37:16;13.57;;;6.82;;
45676;SDS011;31390;51.186;6.830;2022-07-29T05:39:43;10.85;;;7.40;;
45676;SDS011;31390;51.186;6.830;2022-07-29T05:42:14;7.15;;;5.85;;
45676;SDS011;31390;51.186;6.830;2022-07-29T05:44:41;10.63;;;6.35;;
45676;SDS011;31390;51.186;6.830;2022-07-29T05:47:07;14.63;;;6.47;;
45676;SDS011;31390;51.186;6.830;2022-07-29T05:49:35;10.70;;;7.20;;
45676;SDS011;31390;51.186;6.830;2022-07-29T05:52:03;13.20;;;7.10;;
45676;SDS011;31390;51.186;6.830;2022-07-29T05:54:31;11.00;;;6.03;;
45676;SDS011;31390;51.186;6.830;2022-07-29T05:56:58;6.70;;;6.05;;
45676;SDS011;31390;51.186;6.830;2022-07-29T05:59:24;7.00;;;5.60;;
45676;SDS011;31390;51.186;6.830;2022-07-29T06:01:56;8.48;;;6.18;;
45676;SDS011;31390;51.186;6.830;2022-07-29T06:04:23;10.15;;;6.22;;
45676;SDS011;31390;51.186;6.830;2022-07-29T06:06:50;5.43;;;4.72;;
45676;SDS011;31390;51.186;6.830;2022-07-29T06:09:17;5.90;;;5.07;;
45676;SDS011;31390;51.186;6.830;2022-07-29T06:11:44;9.98;;;5.75;;
45676;SDS011;31390;51.186;6.830;2022-07-29T06:14:10;8.77;;;6.15;;
45676;SDS011;31390;51.186;6.830;2022-07-29T06:16:37;8.13;;;5.78;;
45676;SDS011;31390;51.186;6.830;2022-07-29T06:19:05;10.77;;;6.47;;
45676;SDS011;31390;51.186;6.830;2022-07-29T06:21:32;15.15;;;7.18;;
45676;SDS011;31390;51.186;6.830;2022-07-29T06:24:03;7.65;;;5.85;;
45676;SDS011;31390;51.186;6.830;2022-07-29T06:26:30;8.45;;;5.45;;
45676;SDS011;31390;51.186;6.830;2022-07-29T06:29:03;6.43;;;5.82;;
45676;SDS011;31390;51.186;6.830;2022-07-29T06:31:31;9.60;;;5.50;;
45676;SDS011;31390;51.186;6.830;2022-07-29T06:33:57;10.25;;;5.38;;
45676;SDS011;31390;51.186;6.830;2022-07-29T06:36:24;7.43;;;4.90;;
45676;SDS011;31390;51.186;6.830;2022-07-29T06:38:51;7.65;;;5.68;;
45676;SDS011;31390;51.186;6.830;2022-07-29T06:41:19;12.07;;;6.10;;
45676;SDS011;31390;51.186;6.830;2022-07-29T06:43:45;5.22;;;4.63;;
45676;SDS011;31390;51.186;6.830;2022-07-29T06:46:19;4.97;;;4.47;;
45676;SDS011;31390;51.186;6.830;2022-07-29T06:48:47;6.63;;;5.05;;
45676;SDS011;31390;51.186;6.830;2022-07-29T06:51:15;8.63;;;4.20;;
45676;SDS011;31390;51.186;6.830;2022-07-29T06:53:49;6.50;;;5.05;;
45676;SDS011;31390;51.186;6.830;2022-07-29T06:56:31;5.43;;;3.95;;
45676;SDS011;31390;51.186;6.830;2022-07-29T06:59:06;8.43;;;5.35;;
45676;SDS011;31390;51.186;6.830;2022-07-29T07:01:32;6.45;;;5.10;;
45676;SDS011;31390;51.186;6.830;2022-07-29T07:03:59;5.70;;;5.13;;
45676;SDS011;31390;51.186;6.830;2022-07-29T07:06:26;6.90;;;5.45;;
45676;SDS011;31390;51.186;6.830;2022-07-29T07:08:53;9.02;;;4.53;;
45676;SDS011;31390;51.186;6.830;2022-07-29T07:11:20;7.28;;;4.60;;
45676;SDS011;31390;51.186;6.830;2022-07-29T07:13:46;9.32;;;5.55;;
45676;SDS011;31390;51.186;6.830;2022-07-29T07:16:13;5.90;;;4.80;;
45676;SDS011;31390;51.186;6.830;2022-07-29T07:18:42;8.38;;;5.32;;
45676;SDS011;31390;51.186;6.830;2022-07-29T07:21:08;7.07;;;4.97;;
45676;SDS011;31390;51.186;6.830;2022-07-29T07:23:35;7.15;;;5.95;;
45676;SDS011;31390;51.186;6.830;2022-07-29T07:26:01;9.98;;;6.25;;
45676;SDS011;31390;51.186;6.830;2022-07-29T07:28:30;7.13;;;6.43;;
45676;SDS011;31390;51.186;6.830;2022-07-29T07:30:57;8.13;;;6.47;;
45676;SDS011;31390;51.186;6.830;2022-07-29T07:33:23;10.57;;;6.55;;
45676;SDS011;31390;51.186;6.830;2022-07-29T07:35:50;9.27;;;7.20;;
45676;SDS011;31390;51.186;6.830;2022-07-29T07:38:17;9.48;;;8.27;;
45676;SDS011;31390;51.186;6.830;2022-07-29T07:40:43;9.57;;;8.27;;
45676;SDS011;31390;51.186;6.830;2022-07-29T07:43:12;8.63;;;7.80;;
45676;SDS011;31390;51.186;6.830;2022-07-29T07:45:39;8.27;;;7.43;;
45676;SDS011;31390;51.186;6.830;2022-07-29T07:48:06;9.85;;;8.07;;
45676;SDS011;31390;51.186;6.830;2022-07-29T07:50:33;10.10;;;8.90;;
45676;SDS011;31390;51.186;6.830;2022-07-29T07:53:00;9.93;;;8.82;;
45676;SDS011;31390;51.186;6.830;2022-07-29T07:55:28;8.07;;;6.95;;
45676;SDS011;31390;51.186;6.830;2022-07-29T07:58:15;11.32;;;8.93;;
45676;SDS011;31390;51.186;6.830;2022-07-29T08:00:41;17.80;;;10.93;;
45676;SDS011;31390;51.186;6.830;2022-07-29T08:03:08;25.13;;;16.10;;
45676;SDS011;31390;51.186;6.830;2022-07-29T08:05:42;27.55;;;17.20;;
45676;SDS011;31390;51.186;6.830;2022-07-29T08:08:09;19.77;;;13.18;;
45676;SDS011;31390;51.186;6.830;2022-07-29T08:10:36;16.00;;;11.25;;
45676;SDS011;31390;51.186;6.830;2022-07-29T08:13:40;13.25;;;11.32;;
45676;SDS011;31390;51.186;6.830;2022-07-29T08:16:07;15.52;;;11.82;;
45676;SDS011;31390;51.186;6.830;2022-07-29T08:18:42;14.50;;;11.70;;
45676;SDS011;31390;51.186;6.830;2022-07-29T08:21:09;12.63;;;10.05;;
45676;SDS011;31390;51.186;6.830;2022-07-29T08:23:35;13.45;;;10.93;;
45676;SDS011;31390;51.186;6.830;2022-07-29T08:26:13;15.52;;;11.07;;
45676;SDS011;31390;51.186;6.830;2022-07-29T08:28:41;11.05;;;9.68;;
45676;SDS011;31390;51.186;6.830;2022-07-29T08:31:11;14.18;;;9.93;;
45676;SDS011;31390;51.186;6.830;2022-07-29T08:33:40;15.90;;;9.30;;
45676;SDS011;31390;51.186;6.830;2022-07-29T08:36:07;11.98;;;9.15;;
45676;SDS011;31390;51.186;6.830;2022-07-29T08:38:34;12.77;;;9.98;;
45676;SDS011;31390;51.186;6.830;2022-07-29T08:41:03;16.92;;;12.52;;
45676;SDS011;31390;51.186;6.830;2022-07-29T08:43:29;20.70;;;14.25;;
45676;SDS011;31390;51.186;6.830;2022-07-29T08:45:56;17.75;;;13.32;;
45676;SDS011;31390;51.186;6.830;2022-07-29T08:48:23;17.83;;;13.90;;
45676;SDS011;31390;51.186;6.830;2022-07-29T08:50:52;14.55;;;10.48;;
45676;SDS011;31390;51.186;6.830;2022-07-29T08:53:20;23.02;;;15.80;;
45676;SDS011;31390;51.186;6.830;2022-07-29T08:55:48;12.70;;;11.52;;
45676;SDS011;31390;51.186;6.830;2022-07-29T08:58:16;13.40;;;12.00;;
45676;SDS011;31390;51.186;6.830;2022-07-29T09:00:53;13.02;;;9.70;;
45676;SDS011;31390;51.186;6.830;2022-07-29T09:03:22;11.38;;;9.13;;
45676;SDS011;31390;51.186;6.830;2022-07-29T09:05:49;19.17;;;11.15;;
45676;SDS011;31390;51.186;6.830;2022-07-29T09:08:16;13.35;;;8.88;;
45676;SDS011;31390;51.186;6.830;2022-07-29T09:10:43;11.07;;;9.73;;
45676;SDS011;31390;51.186;6.830;2022-07-29T09:13:10;10.13;;;7.95;;
45676;SDS011;31390;51.186;6.830;2022-07-29T09:15:39;10.38;;;8.68;;
45676;SDS011;31390;51.186;6.830;2022-07-29T09:18:06;10.30;;;8.73;;
45676;SDS011;31390;51.186;6.830;2022-07-29T09:20:50;14.57;;;8.40;;
45676;SDS011;31390;51.186;6.830;2022-07-29T09:23:36;11.18;;;7.90;;
45676;SDS011;31390;51.186;6.830;2022-07-29T09:26:04;11.73;;;8.57;;
45676;SDS011;31390;51.186;6.830;2022-07-29T09:28:31;10.10;;;8.30;;
45676;SDS011;31390;51.186;6.830;2022-07-29T09:30:58;9.23;;;8.00;;
45676;SDS011;31390;51.186;6.830;2022-07-29T09:33:31;13.73;;;6.60;;
45676;SDS011;31390;51.186;6.830;2022-07-29T09:35:59;10.00;;;7.53;;
45676;SDS011;31390;51.186;6.830;2022-07-29T09:38:27;8.45;;;5.95;;
45676;SDS011;31390;51.186;6.830;2022-07-29T09:40:57;7.32;;;6.63;;
45676;SDS011;31390;51.186;6.830;2022-07-29T09:43:33;8.32;;;7.32;;
45676;SDS011;31390;51.186;6.830;2022-07-29T09:46:13;10.80;;;6.80;;
45676;SDS011;31390;51.186;6.830;2022-07-29T09:48:39;8.98;;;7.47;;
45676;SDS011;31390;51.186;6.830;2022-07-29T09:51:16;13.45;;;7.25;;
45676;SDS011;31390;51.186;6.830;2022-07-29T09:53:47;10.27;;;7.97;;
45676;SDS011;31390;51.186;6.830;2022-07-29T09:56:14;12.80;;;8.77;;
45676;SDS011;31390;51.186;6.830;2022-07-29T09:58:41;9.07;;;7.90;;
45676;SDS011;31390;51.186;6.830;2022-07-29T10:01:07;12.05;;;8.70;;
45676;SDS011;31390;51.186;6.830;2022-07-29T10:03:51;10.18;;;7.50;;
45676;SDS011;31390;51.186;6.830;2022-07-29T10:06:18;11.23;;;7.57;;
45676;SDS011;31390;51.186;6.830;2022-07-29T10:08:44;8.68;;;7.65;;
45676;SDS011;31390;51.186;6.830;2022-07-29T10:11:12;10.25;;;7.00;;
45676;SDS011;31390;51.186;6.830;2022-07-29T10:13:39;9.63;;;7.70;;
45676;SDS011;31390;51.186;6.830;2022-07-29T10:16:06;8.07;;;7.10;;
45676;SDS011;31390;51.186;6.830;2022-07-29T10:18:33;8.45;;;7.38;;
45676;SDS011;31390;51.186;6.830;2022-07-29T10:21:00;10.85;;;8.25;;
45676;SDS011;31390;51.186;6.830;2022-07-29T10:23:28;11.02;;;7.93;;
45676;SDS011;31390;51.186;6.830;2022-07-29T10:26:11;7.43;;;6.15;;
45676;SDS011;31390;51.186;6.830;2022-07-29T10:28:38;7.22;;;6.53;;
45676;SDS011;31390;51.186;6.830;2022-07-29T10:31:05;6.93;;;6.03;;
45676;SDS011;31390;51.186;6.830;2022-07-29T10:44:05;9.35;;;5.95;;
45676;SDS011;31390;51.186;6.830;2022-07-29T10:46:42;8.35;;;3.83;;
45676;SDS011;31390;51.186;6.830;2022-07-29T10:49:10;7.63;;;4.43;;
45676;SDS011;31390;51.186;6.830;2022-07-29T10:54:17;8.23;;;5.53;;
45676;SDS011;31390;51.186;6.830;2022-07-29T10:56:44;9.50;;;6.97;;
45676;SDS011;31390;51.186;6.830;2022-07-29T11:01:47;9.10;;;4.65;;
45676;SDS011;31390;51.186;6.830;2022-07-29T11:09:31;12.07;;;5.80;;
45676;SDS011;31390;51.186;6.830;2022-07-29T11:12:15;7.68;;;5.90;;
45676;SDS011;31390;51.186;6.830;2022-07-29T11:17:18;8.00;;;5.93;;
45676;SDS011;31390;51.186;6.830;2022-07-29T11:19:47;9.93;;;4.45;;
45676;SDS011;31390;51.186;6.830;2022-07-29T11:22:32;5.95;;;3.38;;
45676;SDS011;31390;51.186;6.830;2022-07-29T11:25:12;9.40;;;3.88;;
45676;SDS011;31390;51.186;6.830;2022-07-29T11:27:42;10.23;;;4.95;;
45676;SDS011;31390;51.186;6.830;2022-07-29T11:30:11;6.05;;;3.25;;
45676;SDS011;31390;51.186;6.830;2022-07-29T11:32:58;7.60;;;4.28;;
45676;SDS011;31390;51.186;6.830;2022-07-29T11:35:26;9.13;;;2.97;;
45676;SDS011;31390;51.186;6.830;2022-07-29T11:43:49;11.27;;;4.10;;
45676;SDS011;31390;51.186;6.830;2022-07-29T11:49:09;7.78;;;3.67;;
45676;SDS011;31390;51.186;6.830;2022-07-29T11:51:40;7.57;;;3.05;;
45676;SDS011;31390;51.186;6.830;2022-07-29T11:54:14;7.05;;;2.83;;
45676;SDS011;31390;51.186;6.830;2022-07-29T11:56:53;5.20;;;2.83;;
45676;SDS011;31390;51.186;6.830;2022-07-29T11:59:20;5.53;;;2.45;;
45676;SDS011;31390;51.186;6.830;2022-07-29T12:01:54;8.20;;;3.22;;
45676;SDS011;31390;51.186;6.830;2022-07-29T12:04:51;4.35;;;2.17;;
45676;SDS011;31390;51.186;6.830;2022-07-29T12:07:30;4.40;;;3.00;;
45676;SDS011;31390;51.186;6.830;2022-07-29T12:10:01;4.90;;;2.15;;
45676;SDS011;31390;51.186;6.830;2022-07-29T12:12:29;4.80;;;2.25;;
45676;SDS011;31390;51.186;6.830;2022-07-29T12:15:21;7.65;;;3.75;;
45676;SDS011;31390;51.186;6.830;2022-07-29T12:17:48;6.53;;;2.60;;
45676;SDS011;31390;51.186;6.830;2022-07-29T12:20:25;6.15;;;2.22;;
45676;SDS011;31390;51.186;6.830;2022-07-29T12:22:53;5.32;;;3.20;;
45676;SDS011;31390;51.186;6.830;2022-07-29T12:25:23;5.32;;;3.13;;
45676;SDS011;31390;51.186;6.830;2022-07-29T12:28:03;10.20;;;3.80;;
45676;SDS011;31390;51.186;6.830;2022-07-29T12:30:36;9.18;;;5.72;;
45676;SDS011;31390;51.186;6.830;2022-07-29T12:33:12;9.82;;;4.45;;
45676;SDS011;31390;51.186;6.830;2022-07-29T12:35:41;6.65;;;4.38;;
45676;SDS011;31390;51.186;6.830;2022-07-29T12:38:10;8.93;;;4.75;;
45676;SDS011;31390;51.186;6.830;2022-07-29T12:40:38;9.45;;;4.35;;
45676;SDS011;31390;51.186;6.830;2022-07-29T12:43:11;7.57;;;3.78;;
45676;SDS011;31390;51.186;6.830;2022-07-29T12:45:39;8.05;;;4.30;;
45676;SDS011;31390;51.186;6.830;2022-07-29T12:48:07;9.90;;;3.95;;
45676;SDS011;31390;51.186;6.830;2022-07-29T12:53:22;10.30;;;4.20;;
45676;SDS011;31390;51.186;6.830;2022-07-29T12:55:50;6.80;;;3.45;;
45676;SDS011;31390;51.186;6.830;2022-07-29T12:58:34;10.55;;;4.20;;
45676;SDS011;31390;51.186;6.830;2022-07-29T13:01:14;8.02;;;3.45;;
45676;SDS011;31390;51.186;6.830;2022-07-29T13:03:43;9.18;;;4.95;;
45676;SDS011;31390;51.186;6.830;2022-07-29T13:06:30;10.90;;;5.07;;
45676;SDS011;31390;51.186;6.830;2022-07-29T13:09:18;7.85;;;4.90;;
45676;SDS011;31390;51.186;6.830;2022-07-29T13:11:49;9.93;;;4.47;;
45676;SDS011;31390;51.186;6.830;2022-07-29T13:14:30;8.68;;;4.50;;
45676;SDS011;31390;51.186;6.830;2022-07-29T13:17:04;8.20;;;4.78;;
45676;SDS011;31390;51.186;6.830;2022-07-29T13:22:05;6.28;;;3.53;;
45676;SDS011;31390;51.186;6.830;2022-07-29T13:24:33;8.57;;;3.45;;
45676;SDS011;31390;51.186;6.830;2022-07-29T13:27:02;7.40;;;3.20;;
45676;SDS011;31390;51.186;6.830;2022-07-29T13:29:31;9.32;;;3.45;;
45676;SDS011;31390;51.186;6.830;2022-07-29T13:31:57;9.32;;;3.95;;
45676;SDS011;31390;51.186;6.830;2022-07-29T13:34:25;6.18;;;3.83;;
45676;SDS011;31390;51.186;6.830;2022-07-29T13:36:52;7.60;;;3.55;;
45676;SDS011;31390;51.186;6.830;2022-07-29T13:39:21;6.30;;;3.72;;
45676;SDS011;31390;51.186;6.830;2022-07-29T13:41:47;8.40;;;4.38;;
45676;SDS011;31390;51.186;6.830;2022-07-29T13:44:14;7.97;;;3.40;;
45676;SDS011;31390;51.186;6.830;2022-07-29T13:46:42;8.60;;;3.55;;
45676;SDS011;31390;51.186;6.830;2022-07-29T13:49:09;6.90;;;3.33;;
45676;SDS011;31390;51.186;6.830;2022-07-29T13:51:38;7.90;;;3.38;;
45676;SDS011;31390;51.186;6.830;2022-07-29T13:54:08;6.35;;;3.80;;
45676;SDS011;31390;51.186;6.830;2022-07-29T13:56:34;6.18;;;3.80;;
45676;SDS011;31390;51.186;6.830;2022-07-29T13:59:02;5.13;;;2.90;;
45676;SDS011;31390;51.186;6.830;2022-07-29T14:01:31;7.28;;;3.50;;
45676;SDS011;31390;51.186;6.830;2022-07-29T14:04:00;5.40;;;3.50;;
45676;SDS011;31390;51.186;6.830;2022-07-29T14:06:27;5.45;;;3.13;;
45676;SDS011;31390;51.186;6.830;2022-07-29T14:08:55;6.68;;;3.53;;
45676;SDS011;31390;51.186;6.830;2022-07-29T14:11:23;12.27;;;3.80;;
45676;SDS011;31390;51.186;6.830;2022-07-29T14:13:50;10.88;;;3.78;;
45676;SDS011;31390;51.186;6.830;2022-07-29T14:16:18;7.70;;;4.32;;
45676;SDS011;31390;51.186;6.830;2022-07-29T14:18:45;9.05;;;3.50;;
45676;SDS011;31390;51.186;6.830;2022-07-29T14:21:14;5.50;;;3.30;;
45676;SDS011;31390;51.186;6.830;2022-07-29T14:23:41;6.70;;;3.53;;
45676;SDS011;31390;51.186;6.830;2022-07-29T14:26:09;11.05;;;3.67;;
45676;SDS011;31390;51.186;6.830;2022-07-29T14:28:41;10.80;;;3.50;;
45676;SDS011;31390;51.186;6.830;2022-07-29T14:31:11;5.80;;;2.97;;
45676;SDS011;31390;51.186;6.830;2022-07-29T14:33:37;4.85;;;2.90;;
45676;SDS011;31390;51.186;6.830;2022-07-29T14:36:08;6.68;;;2.75;;
45676;SDS011;31390;51.186;6.830;2022-07-29T14:38:37;6.82;;;2.90;;
45676;SDS011;31390;51.186;6.830;2022-07-29T14:41:05;7.97;;;2.78;;
45676;SDS011;31390;51.186;6.830;2022-07-29T14:43:32;6.80;;;3.70;;
45676;SDS011;31390;51.186;6.830;2022-07-29T14:45:59;9.10;;;4.88;;
45676;SDS011;31390;51.186;6.830;2022-07-29T14:48:33;9.18;;;5.28;;
45676;SDS011;31390;51.186;6.830;2022-07-29T14:51:01;10.32;;;4.80;;
45676;SDS011;31390;51.186;6.830;2022-07-29T14:53:30;7.78;;;4.40;;
45676;SDS011;31390;51.186;6.830;2022-07-29T14:55:59;8.07;;;4.25;;
45676;SDS011;31390;51.186;6.830;2022-07-29T14:58:46;9.63;;;3.45;;
45676;SDS011;31390;51.186;6.830;2022-07-29T15:01:17;10.30;;;3.75;;
45676;SDS011;31390;51.186;6.830;2022-07-29T15:03:44;5.55;;;3.00;;
45676;SDS011;31390;51.186;6.830;2022-07-29T15:06:10;5.40;;;3.00;;
45676;SDS011;31390;51.186;6.830;2022-07-29T15:08:37;6.80;;;3.55;;
45676;SDS011;31390;51.186;6.830;2022-07-29T15:11:04;8.73;;;3.28;;
45676;SDS011;31390;51.186;6.830;2022-07-29T15:13:30;8.00;;;4.07;;
45676;SDS011;31390;51.186;6.830;2022-07-29T15:15:57;7.40;;;3.67;;
45676;SDS011;31390;51.186;6.830;2022-07-29T15:18:26;6.13;;;3.17;;
45676;SDS011;31390;51.186;6.830;2022-07-29T15:20:53;7.88;;;3.78;;
45676;SDS011;31390;51.186;6.830;2022-07-29T15:23:19;5.80;;;3.25;;
45676;SDS011;31390;51.186;6.830;2022-07-29T15:25:58;8.93;;;3.53;;
45676;SDS011;31390;51.186;6.830;2022-07-29T15:28:25;6.38;;;3.75;;
45676;SDS011;31390;51.186;6.830;2022-07-29T15:30:51;7.80;;;3.75;;
45676;SDS011;31390;51.186;6.830;2022-07-29T15:33:19;5.25;;;3.40;;
45676;SDS011;31390;51.186;6.830;2022-07-29T15:35:46;8.00;;;3.80;;
45676;SDS011;31390;51.186;6.830;2022-07-29T15:38:13;8.02;;;4.03;;
45676;SDS011;31390;51.186;6.830;2022-07-29T15:40:39;7.07;;;3.50;;
45676;SDS011;31390;51.186;6.830;2022-07-29T15:43:07;5.90;;;3.10;;